Time,TemperatureF,DewpointF,PressureIn,WindDirection,WindDirectionDegrees,WindSpeedMPH,WindSpeedGustMPH,Humidity,HourlyPrecipIn,Conditions,Clouds,dailyrainin,SoftwareType,DateUTC
2013-04-10 00:00:00,67.5,52.2,29.90,SSW,193,0.0,4.5,58,0.00,,,0.00,WeatherCatV1.10B1784,2013-04-10 04:00:00,
2013-04-10 00:01:00,67.5,52.2,29.89,SSE,161,0.0,3.4,58,0.00,,,0.00,WeatherCatV1.10B1784,2013-04-10 04:01:00,
2013-04-10 00:06:00,67.3,52.0,29.89,SSE,161,0.0,1.1,58,0.00,,,0.00,WeatherCatV1.10B1784,2013-04-10 04:06:00,
2013-04-10 00:11:00,67.2,51.9,29.89,SSE,161,0.0,1.1,58,0.00,,,0.00,WeatherCatV1.10B1784,2013-04-10 04:11:00,
2013-04-10 00:16:00,67.0,52.2,29.89,SSE,161,1.1,3.4,59,0.00,,,0.00,WeatherCatV1.10B1784,2013-04-10 04:16:00,
2013-04-10 00:21:00,66.8,52.0,29.89,SSE,164,1.1,2.3,59,0.00,,,0.00,WeatherCatV1.10B1784,2013-04-10 04:21:00,
2013-04-10 00:26:00,66.6,52.3,29.89,South,173,0.0,3.4,60,0.00,,,0.00,WeatherCatV1.10B1784,2013-04-10 04:26:00,
2013-04-10 00:31:00,66.6,52.3,29.89,SSW,192,2.3,4.5,60,0.00,,,0.00,WeatherCatV1.10B1784,2013-04-10 04:31:00,
2013-04-10 00:36:00,66.6,52.3,29.89,SSE,157,0.0,2.3,60,0.00,,,0.00,WeatherCatV1.10B1784,2013-04-10 04:36:00,
2013-04-10 00:41:00,66.5,51.7,29.89,South,190,0.0,0.0,59,0.00,,,0.00,WeatherCatV1.10B1784,2013-04-10 04:41:00,
2013-04-10 00:46:00,66.4,51.6,29.89,South,190,0.0,0.0,59,0.00,,,0.00,WeatherCatV1.10B1784,2013-04-10 04:46:00,
2013-04-10 00:51:00,66.3,52.0,29.89,South,190,0.0,0.0,60,0.00,,,0.00,WeatherCatV1.10B1784,2013-04-10 04:51:00,
2013-04-10 00:56:00,66.1,51.8,29.89,South,190,0.0,0.0,60,0.00,,,0.00,WeatherCatV1.10B1784,2013-04-10 04:56:00,
2013-04-10 01:01:00,65.9,52.1,29.90,South,190,0.0,0.0,61,0.00,,,0.00,WeatherCatV1.10B1784,2013-04-10 05:01:00,
2013-04-10 01:06:00,65.7,51.9,29.90,South,190,0.0,1.1,61,0.00,,,0.00,WeatherCatV1.10B1784,2013-04-10 05:06:00,
2013-04-10 01:11:00,65.4,51.6,29.90,SSW,204,0.0,0.0,61,0.00,,,0.00,WeatherCatV1.10B1784,2013-04-10 05:11:00,
2013-04-10 01:16:00,65.2,51.8,29.90,SSW,204,0.0,0.0,62,0.00,,,0.00,WeatherCatV1.10B1784,2013-04-10 05:16:00,
2013-04-10 01:21:00,64.9,52.0,29.90,SSW,203,0.0,1.1,63,0.00,,,0.00,WeatherCatV1.10B1784,2013-04-10 05:21:00,
2013-04-10 01:26:00,64.7,51.8,29.90,SSW,203,0.0,0.0,63,0.00,,,0.00,WeatherCatV1.10B1784,2013-04-10 05:26:00,
2013-04-10 01:31:00,64.7,51.8,29.89,South,180,1.1,2.3,63,0.00,,,0.00,WeatherCatV1.10B1784,2013-04-10 05:31:00,
2013-04-10 01:36:00,64.6,51.7,29.90,South,175,1.1,3.4,63,0.00,,,0.00,WeatherCatV1.10B1784,2013-04-10 05:36:00,
2013-04-10 01:41:00,64.6,51.7,29.90,South,172,1.1,2.3,63,0.00,,,0.00,WeatherCatV1.10B1784,2013-04-10 05:41:00,
2013-04-10 01:46:00,64.6,51.7,29.90,South,172,0.0,1.1,63,0.00,,,0.00,WeatherCatV1.10B1784,2013-04-10 05:46:00,
2013-04-10 01:51:00,64.6,51.7,29.89,South,172,0.0,1.1,63,0.00,,,0.00,WeatherCatV1.10B1784,2013-04-10 05:51:00,
2013-04-10 01:57:00,64.6,51.7,29.90,South,172,0.0,1.1,63,0.00,,,0.00,WeatherCatV1.10B1784,2013-04-10 05:57:00,
2013-04-10 02:02:00,64.5,51.6,29.90,South,171,0.0,1.1,63,0.00,,,0.00,WeatherCatV1.10B1784,2013-04-10 06:02:00,
2013-04-10 02:07:00,64.2,51.8,29.89,South,172,1.1,2.3,64,0.00,,,0.00,WeatherCatV1.10B1784,2013-04-10 06:07:00,
2013-04-10 02:12:00,63.9,51.5,29.89,SE,141,0.0,2.3,64,0.00,,,0.00,WeatherCatV1.10B1784,2013-04-10 06:12:00,
2013-04-10 02:17:00,63.9,51.5,29.89,SE,128,0.0,2.3,64,0.00,,,0.00,WeatherCatV1.10B1784,2013-04-10 06:17:00,
2013-04-10 02:22:00,63.9,51.5,29.89,SE,138,0.0,2.3,64,0.00,,,0.00,WeatherCatV1.10B1784,2013-04-10 06:22:00,
2013-04-10 02:27:00,63.9,51.5,29.89,SE,137,0.0,2.3,64,0.00,,,0.00,WeatherCatV1.10B1784,2013-04-10 06:27:00,
2013-04-10 02:32:00,64.0,51.6,29.89,SE,128,0.0,2.3,64,0.00,,,0.00,WeatherCatV1.10B1784,2013-04-10 06:32:00,
2013-04-10 02:37:00,64.3,51.9,29.89,SE,124,0.0,2.3,64,0.00,,,0.00,WeatherCatV1.10B1784,2013-04-10 06:37:00,
2013-04-10 02:42:00,64.4,51.5,29.89,SE,124,0.0,1.1,63,0.00,,,0.00,WeatherCatV1.10B1784,2013-04-10 06:42:00,
2013-04-10 02:47:00,64.4,51.5,29.89,SE,126,0.0,2.3,63,0.00,,,0.00,WeatherCatV1.10B1784,2013-04-10 06:47:00,
2013-04-10 02:52:00,64.3,51.4,29.89,SE,125,0.0,1.1,63,0.00,,,0.00,WeatherCatV1.10B1784,2013-04-10 06:52:00,
2013-04-10 02:57:00,64.2,51.8,29.89,SE,125,0.0,1.1,64,0.00,,,0.00,WeatherCatV1.10B1784,2013-04-10 06:57:00,
2013-04-10 03:02:00,64.1,51.7,29.89,SE,126,1.1,1.1,64,0.00,,,0.00,WeatherCatV1.10B1784,2013-04-10 07:02:00,
2013-04-10 03:07:00,64.1,51.2,29.89,SE,145,0.0,1.1,63,0.00,,,0.00,WeatherCatV1.10B1784,2013-04-10 07:07:00,
2013-04-10 03:12:00,64.1,51.7,29.89,SSW,197,0.0,1.1,64,0.00,,,0.00,WeatherCatV1.10B1784,2013-04-10 07:12:00,
2013-04-10 03:17:00,64.1,51.7,29.89,SSW,197,0.0,1.1,64,0.00,,,0.00,WeatherCatV1.10B1784,2013-04-10 07:17:00,
2013-04-10 03:22:00,64.1,51.7,29.89,South,182,3.4,3.4,64,0.00,,,0.00,WeatherCatV1.10B1784,2013-04-10 07:22:00,
2013-04-10 03:27:00,64.0,51.6,29.89,South,182,0.0,1.1,64,0.00,,,0.00,WeatherCatV1.10B1784,2013-04-10 07:27:00,
2013-04-10 03:32:00,63.9,51.5,29.90,SSW,207,1.1,4.5,64,0.00,,,0.00,WeatherCatV1.10B1784,2013-04-10 07:32:00,
2013-04-10 03:37:00,64.2,51.8,29.90,SSW,198,0.0,2.3,64,0.00,,,0.00,WeatherCatV1.10B1784,2013-04-10 07:37:00,
2013-04-10 03:42:00,64.5,51.6,29.90,SW,215,0.0,4.5,63,0.00,,,0.00,WeatherCatV1.10B1784,2013-04-10 07:42:00,
2013-04-10 03:47:00,64.6,51.7,29.90,South,171,0.0,1.1,63,0.00,,,0.00,WeatherCatV1.10B1784,2013-04-10 07:47:00,
2013-04-10 03:52:00,64.5,51.6,29.90,South,171,0.0,0.0,63,0.00,,,0.00,WeatherCatV1.10B1784,2013-04-10 07:52:00,
2013-04-10 03:57:00,64.3,51.4,29.90,South,177,0.0,1.1,63,0.00,,,0.00,WeatherCatV1.10B1784,2013-04-10 07:57:00,
2013-04-10 04:02:00,64.2,51.3,29.90,South,177,0.0,1.1,63,0.00,,,0.00,WeatherCatV1.10B1784,2013-04-10 08:02:00,
2013-04-10 04:07:00,64.0,51.1,29.90,South,177,0.0,0.0,63,0.00,,,0.00,WeatherCatV1.10B1784,2013-04-10 08:07:00,
2013-04-10 04:12:00,63.9,51.5,29.91,South,177,0.0,1.1,64,0.00,,,0.00,WeatherCatV1.10B1784,2013-04-10 08:12:00,
2013-04-10 04:17:00,63.8,51.4,29.91,South,178,0.0,1.1,64,0.00,,,0.00,WeatherCatV1.10B1784,2013-04-10 08:17:00,
2013-04-10 04:22:00,63.8,51.4,29.91,South,178,0.0,0.0,64,0.00,,,0.00,WeatherCatV1.10B1784,2013-04-10 08:22:00,
2013-04-10 04:27:00,63.6,51.2,29.91,South,178,0.0,0.0,64,0.00,,,0.00,WeatherCatV1.10B1784,2013-04-10 08:27:00,
2013-04-10 04:32:00,63.4,51.0,29.91,South,178,0.0,0.0,64,0.00,,,0.00,WeatherCatV1.10B1784,2013-04-10 08:32:00,
2013-04-10 04:37:00,63.1,51.1,29.91,South,177,0.0,1.1,65,0.00,,,0.00,WeatherCatV1.10B1784,2013-04-10 08:37:00,
2013-04-10 04:42:00,62.7,50.8,29.91,South,177,0.0,0.0,65,0.00,,,0.00,WeatherCatV1.10B1784,2013-04-10 08:42:00,
2013-04-10 04:47:00,62.4,50.9,29.92,South,177,0.0,0.0,66,0.00,,,0.00,WeatherCatV1.10B1784,2013-04-10 08:47:00,
2013-04-10 04:52:00,62.2,50.7,29.92,South,177,0.0,0.0,66,0.00,,,0.00,WeatherCatV1.10B1784,2013-04-10 08:52:00,
2013-04-10 04:57:00,62.0,50.9,29.92,South,177,0.0,0.0,67,0.00,,,0.00,WeatherCatV1.10B1784,2013-04-10 08:57:00,
2013-04-10 05:02:00,62.0,50.9,29.92,South,172,0.0,0.0,67,0.00,,,0.00,WeatherCatV1.10B1784,2013-04-10 09:02:00,
2013-04-10 05:07:00,62.2,50.7,29.92,South,172,0.0,0.0,66,0.00,,,0.00,WeatherCatV1.10B1784,2013-04-10 09:07:00,
2013-04-10 05:12:00,62.3,50.8,29.92,South,172,0.0,0.0,66,0.00,,,0.00,WeatherCatV1.10B1784,2013-04-10 09:12:00,
2013-04-10 05:17:00,62.3,50.4,29.92,WSW,248,1.1,3.4,65,0.00,,,0.00,WeatherCatV1.10B1784,2013-04-10 09:17:00,
2013-04-10 05:22:00,62.5,50.6,29.92,WSW,248,0.0,0.0,65,0.00,,,0.00,WeatherCatV1.10B1784,2013-04-10 09:22:00,
2013-04-10 05:27:00,62.7,50.8,29.92,WSW,249,1.1,1.1,65,0.00,,,0.00,WeatherCatV1.10B1784,2013-04-10 09:27:00,
2013-04-10 05:32:00,62.8,50.9,29.92,ESE,121,0.0,2.3,65,0.00,,,0.00,WeatherCatV1.10B1784,2013-04-10 09:32:00,
2013-04-10 05:37:00,62.7,50.8,29.92,ESE,121,1.1,2.3,65,0.00,,,0.00,WeatherCatV1.10B1784,2013-04-10 09:37:00,
2013-04-10 05:42:00,62.7,50.8,29.92,SE,144,0.0,2.3,65,0.00,,,0.00,WeatherCatV1.10B1784,2013-04-10 09:42:00,
2013-04-10 05:47:00,62.6,50.7,29.92,SE,144,0.0,2.3,65,0.00,,,0.00,WeatherCatV1.10B1784,2013-04-10 09:47:00,
2013-04-10 05:52:00,62.5,50.6,29.92,SE,144,1.1,2.3,65,0.00,,,0.00,WeatherCatV1.10B1784,2013-04-10 09:52:00,
2013-04-10 05:57:00,62.6,51.1,29.92,SE,144,0.0,2.3,66,0.00,,,0.00,WeatherCatV1.10B1784,2013-04-10 09:57:00,
2013-04-10 06:02:00,62.6,50.7,29.92,SSE,147,1.1,1.1,65,0.00,,,0.00,WeatherCatV1.10B1784,2013-04-10 10:02:00,
2013-04-10 06:07:00,62.6,50.7,29.92,SE,142,0.0,1.1,65,0.00,,,0.00,WeatherCatV1.10B1784,2013-04-10 10:07:00,
2013-04-10 06:12:00,62.5,50.6,29.92,SE,142,1.1,2.3,65,0.00,,,0.00,WeatherCatV1.10B1784,2013-04-10 10:12:00,
2013-04-10 06:17:00,62.4,50.5,29.92,SE,138,1.1,1.1,65,0.00,,,0.00,WeatherCatV1.10B1784,2013-04-10 10:17:00,
2013-04-10 06:22:00,62.3,50.8,29.92,SE,138,0.0,2.3,66,0.00,,,0.00,WeatherCatV1.10B1784,2013-04-10 10:22:00,
2013-04-10 06:27:00,62.1,50.6,29.93,SSE,148,0.0,1.1,66,0.00,,,0.00,WeatherCatV1.10B1784,2013-04-10 10:27:00,
2013-04-10 06:32:00,62.1,50.6,29.93,SSE,148,0.0,1.1,66,0.00,,,0.00,WeatherCatV1.10B1784,2013-04-10 10:32:00,
2013-04-10 06:37:00,62.2,50.7,29.93,SSE,148,0.0,1.1,66,0.00,,,0.00,WeatherCatV1.10B1784,2013-04-10 10:37:00,
2013-04-10 06:42:00,62.3,50.4,29.93,SSE,148,0.0,0.0,65,0.00,,,0.00,WeatherCatV1.10B1784,2013-04-10 10:42:00,
2013-04-10 06:47:00,62.5,50.6,29.94,SSE,148,0.0,0.0,65,0.00,,,0.00,WeatherCatV1.10B1784,2013-04-10 10:47:00,
2013-04-10 06:52:00,62.8,50.9,29.94,SSE,148,0.0,0.0,65,0.00,,,0.00,WeatherCatV1.10B1784,2013-04-10 10:52:00,
2013-04-10 06:57:00,63.0,51.0,29.94,West,259,3.4,3.4,65,0.00,,,0.00,WeatherCatV1.10B1784,2013-04-10 10:57:00,
2013-04-10 07:02:00,63.2,51.2,29.94,West,269,0.0,0.0,65,0.00,,,0.00,WeatherCatV1.10B1784,2013-04-10 11:02:00,
2013-04-10 07:07:00,63.5,51.5,29.94,South,178,2.3,2.3,65,0.00,,,0.00,WeatherCatV1.10B1784,2013-04-10 11:07:00,
2013-04-10 07:12:00,63.5,51.5,29.94,SSE,149,1.1,3.4,65,0.00,,,0.00,WeatherCatV1.10B1784,2013-04-10 11:12:00,
2013-04-10 07:17:00,63.5,51.5,29.94,South,173,2.3,4.5,65,0.00,,,0.00,WeatherCatV1.10B1784,2013-04-10 11:17:00,
2013-04-10 07:22:00,63.5,51.5,29.95,South,172,2.3,3.4,65,0.00,,,0.00,WeatherCatV1.10B1784,2013-04-10 11:22:00,
2013-04-10 07:27:00,63.7,51.3,29.95,South,184,0.0,0.0,64,0.00,,,0.00,WeatherCatV1.10B1784,2013-04-10 11:27:00,
2013-04-10 07:32:00,63.8,51.8,29.94,South,169,1.1,4.5,65,0.00,,,0.00,WeatherCatV1.10B1784,2013-04-10 11:32:00,
2013-04-10 07:37:00,63.8,51.8,29.95,SSE,159,1.1,2.3,65,0.00,,,0.00,WeatherCatV1.10B1784,2013-04-10 11:37:00,
2013-04-10 07:42:00,63.9,51.9,29.95,SSE,157,0.0,2.3,65,0.00,,,0.00,WeatherCatV1.10B1784,2013-04-10 11:42:00,
2013-04-10 07:47:00,64.1,51.7,29.95,SSE,156,2.3,2.3,64,0.00,,,0.00,WeatherCatV1.10B1784,2013-04-10 11:47:00,
2013-04-10 07:52:00,64.4,52.0,29.94,SSE,152,1.1,3.4,64,0.00,,,0.00,WeatherCatV1.10B1784,2013-04-10 11:52:00,
2013-04-10 07:57:00,64.9,52.4,29.94,SSE,157,1.1,3.4,64,0.00,,,0.00,WeatherCatV1.10B1784,2013-04-10 11:57:00,
2013-04-10 08:02:00,65.3,52.8,29.94,South,181,2.3,4.5,64,0.00,,,0.00,WeatherCatV1.10B1784,2013-04-10 12:02:00,
2013-04-10 08:07:00,66.0,52.6,29.94,South,173,1.1,4.5,62,0.00,,,0.00,WeatherCatV1.10B1784,2013-04-10 12:07:00,
2013-04-10 08:12:00,66.7,52.4,29.94,SSW,209,3.4,5.7,60,0.00,,,0.00,WeatherCatV1.10B1784,2013-04-10 12:12:00,
2013-04-10 08:17:00,67.3,52.5,29.94,South,171,0.0,4.5,59,0.00,,,0.00,WeatherCatV1.10B1784,2013-04-10 12:17:00,
2013-04-10 08:22:00,68.0,52.7,29.94,South,169,4.5,5.7,58,0.00,,,0.00,WeatherCatV1.10B1784,2013-04-10 12:22:00,
2013-04-10 08:27:00,68.5,53.1,29.94,SW,220,0.0,1.1,58,0.00,,,0.00,WeatherCatV1.10B1784,2013-04-10 12:27:00,
2013-04-10 08:32:00,68.7,52.8,29.94,SW,221,0.0,2.3,57,0.00,,,0.00,WeatherCatV1.10B1784,2013-04-10 12:32:00,
2013-04-10 08:37:00,69.0,53.1,29.94,WSW,243,0.0,3.4,57,0.00,,,0.00,WeatherCatV1.10B1784,2013-04-10 12:37:00,
2013-04-10 08:42:00,69.3,53.4,29.94,SW,223,0.0,2.3,57,0.00,,,0.00,WeatherCatV1.10B1784,2013-04-10 12:42:00,
2013-04-10 08:47:00,69.5,53.6,29.94,West,276,2.3,4.5,57,0.00,,,0.00,WeatherCatV1.10B1784,2013-04-10 12:47:00,
2013-04-10 08:52:00,70.1,54.1,29.94,WNW,290,3.4,4.5,57,0.00,,,0.00,WeatherCatV1.10B1784,2013-04-10 12:52:00,
2013-04-10 08:57:00,71.1,54.1,29.94,WSW,243,3.4,7.9,55,0.00,,,0.00,WeatherCatV1.10B1784,2013-04-10 12:57:00,
2013-04-10 09:02:00,71.6,54.6,29.94,WSW,250,4.5,7.9,55,0.00,,,0.00,WeatherCatV1.10B1784,2013-04-10 13:02:00,
2013-04-10 09:07:00,72.1,54.5,29.94,SW,228,4.5,9.0,54,0.00,,,0.00,WeatherCatV1.10B1784,2013-04-10 13:07:00,
2013-04-10 09:12:00,72.9,54.2,29.94,WSW,242,4.5,10.2,52,0.00,,,0.00,WeatherCatV1.10B1784,2013-04-10 13:12:00,
2013-04-10 09:17:00,73.7,54.4,29.94,West,273,5.7,10.2,51,0.00,,,0.00,WeatherCatV1.10B1784,2013-04-10 13:17:00,
2013-04-10 09:22:00,74.2,54.3,29.94,West,268,4.5,15.8,50,0.00,,,0.00,WeatherCatV1.10B1784,2013-04-10 13:22:00,
2013-04-10 09:27:00,75.0,55.1,29.94,West,260,5.7,10.2,50,0.00,,,0.00,WeatherCatV1.10B1784,2013-04-10 13:27:00,
2013-04-10 09:32:00,75.7,55.2,29.94,West,260,7.9,13.6,49,0.00,,,0.00,WeatherCatV1.10B1784,2013-04-10 13:32:00,
2013-04-10 09:37:00,76.2,55.6,29.94,West,277,9.0,17.0,49,0.00,,,0.00,WeatherCatV1.10B1784,2013-04-10 13:37:00,
2013-04-10 09:42:00,76.6,55.4,29.94,West,264,11.3,12.4,48,0.00,,,0.00,WeatherCatV1.10B1784,2013-04-10 13:42:00,
2013-04-10 09:47:00,77.0,55.8,29.94,WSW,243,10.2,12.4,48,0.00,,,0.00,WeatherCatV1.10B1784,2013-04-10 13:47:00,
2013-04-10 09:52:00,77.2,56.0,29.94,WSW,238,13.6,17.0,48,0.00,,,0.00,WeatherCatV1.10B1784,2013-04-10 13:52:00,
2013-04-10 09:57:00,77.4,56.7,29.94,WSW,254,5.7,12.4,49,0.00,,,0.00,WeatherCatV1.10B1784,2013-04-10 13:57:00,
2013-04-10 10:02:00,77.7,56.4,29.93,West,279,7.9,12.4,48,0.00,,,0.00,WeatherCatV1.10B1784,2013-04-10 14:02:00,
2013-04-10 10:07:00,78.0,56.1,29.93,WSW,246,3.4,10.2,47,0.00,,,0.00,WeatherCatV1.10B1784,2013-04-10 14:07:00,
2013-04-10 10:12:00,78.2,56.9,29.93,WSW,252,6.8,9.0,48,0.00,,,0.00,WeatherCatV1.10B1784,2013-04-10 14:12:00,
2013-04-10 10:17:00,78.4,57.1,29.93,WNW,285,9.0,12.4,48,0.00,,,0.00,WeatherCatV1.10B1784,2013-04-10 14:17:00,
2013-04-10 10:22:00,78.6,56.7,29.93,WSW,257,14.7,17.0,47,0.00,,,0.00,WeatherCatV1.10B1784,2013-04-10 14:22:00,
2013-04-10 10:27:00,78.7,57.3,29.93,West,263,5.7,13.6,48,0.00,,,0.00,WeatherCatV1.10B1784,2013-04-10 14:27:00,
2013-04-10 10:32:00,78.6,57.2,29.93,WNW,283,10.2,13.6,48,0.00,,,0.00,WeatherCatV1.10B1784,2013-04-10 14:32:00,
2013-04-10 10:37:00,79.0,57.6,29.92,WNW,286,12.4,14.7,48,0.00,,,0.00,WeatherCatV1.10B1784,2013-04-10 14:37:00,
2013-04-10 10:42:00,79.4,57.4,29.92,West,278,11.3,17.0,47,0.00,,,0.00,WeatherCatV1.10B1784,2013-04-10 14:42:00,
2013-04-10 10:47:00,79.7,58.8,29.92,WNW,298,11.3,14.7,49,0.00,,,0.00,WeatherCatV1.10B1784,2013-04-10 14:47:00,
2013-04-10 10:52:00,79.7,57.7,29.93,SSW,211,7.9,26.0,47,0.00,,,0.00,WeatherCatV1.10B1784,2013-04-10 14:52:00,
2013-04-10 10:57:00,79.9,57.8,29.93,WSW,253,10.2,20.3,47,0.00,,,0.00,WeatherCatV1.10B1784,2013-04-10 14:57:00,
2013-04-10 11:02:00,80.0,58.5,29.93,WSW,255,14.7,18.1,48,0.00,,,0.00,WeatherCatV1.10B1784,2013-04-10 15:02:00,
2013-04-10 11:07:00,80.1,57.4,29.92,West,277,10.2,15.8,46,0.00,,,0.00,WeatherCatV1.10B1784,2013-04-10 15:07:00,
2013-04-10 11:12:00,80.2,57.5,29.93,WNW,293,6.8,19.2,46,0.00,,,0.00,WeatherCatV1.10B1784,2013-04-10 15:12:00,
2013-04-10 11:17:00,80.5,58.4,29.92,WNW,282,14.7,17.0,47,0.00,,,0.00,WeatherCatV1.10B1784,2013-04-10 15:17:00,
2013-04-10 11:22:00,80.9,58.8,29.92,West,264,12.4,14.7,47,0.00,,,0.00,WeatherCatV1.10B1784,2013-04-10 15:22:00,
2013-04-10 11:27:00,80.8,57.4,29.92,West,264,2.3,14.7,45,0.00,,,0.00,WeatherCatV1.10B1784,2013-04-10 15:27:00,
2013-04-10 11:32:00,80.8,58.1,29.93,West,273,7.9,18.1,46,0.00,,,0.00,WeatherCatV1.10B1784,2013-04-10 15:32:00,
2013-04-10 11:37:00,81.0,57.6,29.92,WSW,240,6.8,19.2,45,0.00,,,0.00,WeatherCatV1.10B1784,2013-04-10 15:37:00,
2013-04-10 11:42:00,81.2,57.8,29.92,West,278,10.2,11.3,45,0.00,,,0.00,WeatherCatV1.10B1784,2013-04-10 15:42:00,
2013-04-10 11:47:00,81.4,58.0,29.92,WNW,286,13.6,17.0,45,0.00,,,0.00,WeatherCatV1.10B1784,2013-04-10 15:47:00,
2013-04-10 11:52:00,81.5,58.7,29.92,West,262,10.2,14.7,46,0.00,,,0.00,WeatherCatV1.10B1784,2013-04-10 15:52:00,
2013-04-10 11:57:00,81.9,59.1,29.91,SSW,197,6.8,9.0,46,0.00,,,0.00,WeatherCatV1.10B1784,2013-04-10 15:57:00,
2013-04-10 12:02:00,82.3,58.2,29.91,West,274,11.3,14.7,44,0.00,,,0.00,WeatherCatV1.10B1784,2013-04-10 16:02:00,
2013-04-10 12:07:00,82.5,59.0,29.91,WSW,256,10.2,11.3,45,0.00,,,0.00,WeatherCatV1.10B1784,2013-04-10 16:07:00,
2013-04-10 12:12:00,82.8,58.6,29.91,West,263,13.6,17.0,44,0.00,,,0.00,WeatherCatV1.10B1784,2013-04-10 16:12:00,
2013-04-10 12:17:00,83.0,59.4,29.91,West,261,6.8,11.3,45,0.00,,,0.00,WeatherCatV1.10B1784,2013-04-10 16:17:00,
2013-04-10 12:22:00,83.2,57.0,29.90,SW,224,7.9,17.0,41,0.00,,,0.00,WeatherCatV1.10B1784,2013-04-10 16:22:00,
2013-04-10 12:27:00,83.3,58.4,29.90,West,265,7.9,14.7,43,0.00,,,0.00,WeatherCatV1.10B1784,2013-04-10 16:27:00,
2013-04-10 12:32:00,83.7,58.1,29.90,West,267,10.2,14.7,42,0.00,,,0.00,WeatherCatV1.10B1784,2013-04-10 16:32:00,
2013-04-10 12:37:00,83.6,56.7,29.90,West,259,4.5,12.4,40,0.00,,,0.00,WeatherCatV1.10B1784,2013-04-10 16:37:00,
2013-04-10 12:42:00,83.4,57.9,29.90,West,265,4.5,11.3,42,0.00,,,0.00,WeatherCatV1.10B1784,2013-04-10 16:42:00,
2013-04-10 12:47:00,83.9,58.3,29.90,WSW,245,4.5,14.7,42,0.00,,,0.00,WeatherCatV1.10B1784,2013-04-10 16:47:00,
2013-04-10 12:52:00,84.2,59.2,29.89,West,260,13.6,13.6,43,0.00,,,0.00,WeatherCatV1.10B1784,2013-04-10 16:52:00,
2013-04-10 12:57:00,84.5,57.5,29.89,WSW,242,13.6,14.7,40,0.00,,,0.00,WeatherCatV1.10B1784,2013-04-10 16:57:00,
2013-04-10 13:02:00,84.6,58.3,29.89,West,272,6.8,17.0,41,0.00,,,0.00,WeatherCatV1.10B1784,2013-04-10 17:02:00,
2013-04-10 13:07:00,84.8,58.4,29.89,WNW,289,3.4,10.2,41,0.00,,,0.00,WeatherCatV1.10B1784,2013-04-10 17:07:00,
2013-04-10 13:12:00,85.4,58.3,29.88,WSW,248,7.9,11.3,40,0.00,,,0.00,WeatherCatV1.10B1784,2013-04-10 17:12:00,
2013-04-10 13:17:00,85.4,59.0,29.88,SW,236,11.3,12.4,41,0.00,,,0.00,WeatherCatV1.10B1784,2013-04-10 17:17:00,
2013-04-10 13:22:00,85.7,58.6,29.88,West,277,3.4,13.6,40,0.00,,,0.00,WeatherCatV1.10B1784,2013-04-10 17:22:00,
2013-04-10 13:27:00,85.6,57.0,29.88,SSW,213,7.9,12.4,38,0.00,,,0.00,WeatherCatV1.10B1784,2013-04-10 17:27:00,
2013-04-10 13:32:00,85.4,57.6,29.88,West,279,7.9,18.1,39,0.00,,,0.00,WeatherCatV1.10B1784,2013-04-10 17:32:00,
2013-04-10 13:37:00,85.7,56.4,29.87,WNW,283,17.0,17.0,37,0.00,,,0.00,WeatherCatV1.10B1784,2013-04-10 17:37:00,
2013-04-10 13:42:00,85.9,59.4,29.87,WSW,247,12.4,17.0,41,0.00,,,0.00,WeatherCatV1.10B1784,2013-04-10 17:42:00,
2013-04-10 13:47:00,86.2,57.6,29.87,SW,232,10.2,19.2,38,0.00,,,0.00,WeatherCatV1.10B1784,2013-04-10 17:47:00,
2013-04-10 13:52:00,85.8,57.2,29.87,WNW,285,7.9,14.7,38,0.00,,,0.00,WeatherCatV1.10B1784,2013-04-10 17:52:00,
2013-04-10 13:57:00,86.3,58.4,29.87,SSW,209,7.9,13.6,39,0.00,,,0.00,WeatherCatV1.10B1784,2013-04-10 17:57:00,
2013-04-10 14:02:00,86.6,58.7,29.87,WNW,292,3.4,11.3,39,0.00,,,0.00,WeatherCatV1.10B1784,2013-04-10 18:02:00,
2013-04-10 14:07:00,86.7,58.0,29.86,WNW,288,9.0,10.2,38,0.00,,,0.00,WeatherCatV1.10B1784,2013-04-10 18:07:00,
2013-04-10 14:12:00,86.3,57.7,29.86,South,182,6.8,14.7,38,0.00,,,0.00,WeatherCatV1.10B1784,2013-04-10 18:12:00,
2013-04-10 14:17:00,86.5,57.1,29.86,WNW,288,9.0,11.3,37,0.00,,,0.00,WeatherCatV1.10B1784,2013-04-10 18:17:00,
2013-04-10 14:22:00,87.3,57.8,29.86,WSW,242,4.5,15.8,37,0.00,,,0.00,WeatherCatV1.10B1784,2013-04-10 18:22:00,
2013-04-10 14:27:00,87.7,58.2,29.86,SW,231,3.4,13.6,37,0.00,,,0.00,WeatherCatV1.10B1784,2013-04-10 18:27:00,
2013-04-10 14:32:00,87.3,56.3,29.86,SSW,213,6.8,13.6,35,0.00,,,0.00,WeatherCatV1.10B1784,2013-04-10 18:32:00,
2013-04-10 14:37:00,86.3,56.2,29.85,SW,236,5.7,6.8,36,0.00,,,0.00,WeatherCatV1.10B1784,2013-04-10 18:37:00,
2013-04-10 14:42:00,86.0,56.7,29.85,SSW,201,5.7,14.7,37,0.00,,,0.00,WeatherCatV1.10B1784,2013-04-10 18:42:00,
2013-04-10 14:47:00,86.4,57.8,29.85,WSW,254,6.8,10.2,38,0.00,,,0.00,WeatherCatV1.10B1784,2013-04-10 18:47:00,
2013-04-10 14:52:00,86.2,55.3,29.85,West,281,11.3,18.1,35,0.00,,,0.00,WeatherCatV1.10B1784,2013-04-10 18:52:00,
2013-04-10 14:57:00,86.0,56.7,29.85,WSW,238,7.9,11.3,37,0.00,,,0.00,WeatherCatV1.10B1784,2013-04-10 18:57:00,
2013-04-10 15:02:00,86.8,56.6,29.84,West,263,6.8,10.2,36,0.00,,,0.00,WeatherCatV1.10B1784,2013-04-10 19:02:00,
2013-04-10 15:07:00,87.6,56.5,29.84,West,271,6.8,10.2,35,0.00,,,0.00,WeatherCatV1.10B1784,2013-04-10 19:07:00,
2013-04-10 15:12:00,87.9,57.6,29.84,South,184,5.7,17.0,36,0.00,,,0.00,WeatherCatV1.10B1784,2013-04-10 19:12:00,
2013-04-10 15:17:00,88.0,56.9,29.83,SSW,198,10.2,12.4,35,0.00,,,0.00,WeatherCatV1.10B1784,2013-04-10 19:17:00,
2013-04-10 15:22:00,87.5,55.6,29.83,South,186,4.5,7.9,34,0.00,,,0.00,WeatherCatV1.10B1784,2013-04-10 19:22:00,
2013-04-10 15:27:00,87.3,57.0,29.83,SSW,212,4.5,7.9,36,0.00,,,0.00,WeatherCatV1.10B1784,2013-04-10 19:27:00,
2013-04-10 15:32:00,88.0,56.9,29.83,SW,222,14.7,18.1,35,0.00,,,0.00,WeatherCatV1.10B1784,2013-04-10 19:32:00,
2013-04-10 15:37:00,88.1,55.3,29.82,SSW,197,9.0,17.0,33,0.00,,,0.00,WeatherCatV1.10B1784,2013-04-10 19:37:00,
2013-04-10 15:42:00,88.0,55.2,29.82,SW,221,6.8,13.6,33,0.00,,,0.00,WeatherCatV1.10B1784,2013-04-10 19:42:00,
2013-04-10 15:47:00,87.2,55.4,29.82,West,263,9.0,15.8,34,0.00,,,0.00,WeatherCatV1.10B1784,2013-04-10 19:47:00,
2013-04-10 15:52:00,87.1,56.1,29.82,SW,226,9.0,12.4,35,0.00,,,0.00,WeatherCatV1.10B1784,2013-04-10 19:52:00,
2013-04-10 15:57:00,87.7,56.6,29.82,WNW,290,10.2,13.6,35,0.00,,,0.00,WeatherCatV1.10B1784,2013-04-10 19:57:00,
2013-04-10 16:02:00,87.8,55.1,29.82,SSW,192,3.4,6.8,33,0.00,,,0.00,WeatherCatV1.10B1784,2013-04-10 20:02:00,
2013-04-10 16:07:00,88.0,56.1,29.81,West,269,10.2,13.6,34,0.00,,,0.00,WeatherCatV1.10B1784,2013-04-10 20:07:00,
2013-04-10 16:12:00,88.0,56.1,29.81,South,171,4.5,7.9,34,0.00,,,0.00,WeatherCatV1.10B1784,2013-04-10 20:12:00,
2013-04-10 16:17:00,88.2,54.6,29.82,WSW,242,10.2,12.4,32,0.00,,,0.00,WeatherCatV1.10B1784,2013-04-10 20:17:00,
2013-04-10 16:22:00,88.0,54.4,29.82,SW,224,14.7,17.0,32,0.00,,,0.00,WeatherCatV1.10B1784,2013-04-10 20:22:00,
2013-04-10 16:27:00,87.8,55.1,29.81,WNW,296,4.5,13.6,33,0.00,,,0.00,WeatherCatV1.10B1784,2013-04-10 20:27:00,
2013-04-10 16:32:00,87.7,55.0,29.82,SSW,197,7.9,15.8,33,0.00,,,0.00,WeatherCatV1.10B1784,2013-04-10 20:32:00,
2013-04-10 16:37:00,87.4,54.7,29.81,West,262,4.5,11.3,33,0.00,,,0.00,WeatherCatV1.10B1784,2013-04-10 20:37:00,
2013-04-10 16:42:00,86.9,54.3,29.81,West,273,5.7,9.0,33,0.00,,,0.00,WeatherCatV1.10B1784,2013-04-10 20:42:00,
2013-04-10 16:47:00,86.6,54.8,29.81,WSW,256,9.0,9.0,34,0.00,,,0.00,WeatherCatV1.10B1784,2013-04-10 20:47:00,
2013-04-10 16:52:00,86.6,54.8,29.81,West,264,5.7,10.2,34,0.00,,,0.00,WeatherCatV1.10B1784,2013-04-10 20:52:00,
2013-04-10 16:57:00,86.4,54.7,29.81,South,180,5.7,9.0,34,0.00,,,0.00,WeatherCatV1.10B1784,2013-04-10 20:57:00,
2013-04-10 17:02:00,86.2,54.5,29.81,SW,232,5.7,10.2,34,0.00,,,0.00,WeatherCatV1.10B1784,2013-04-10 21:02:00,
2013-04-10 17:07:00,86.1,55.2,29.80,SW,215,6.8,9.0,35,0.00,,,0.00,WeatherCatV1.10B1784,2013-04-10 21:07:00,
2013-04-10 17:12:00,86.1,55.2,29.80,SSW,209,2.3,10.2,35,0.00,,,0.00,WeatherCatV1.10B1784,2013-04-10 21:12:00,
2013-04-10 17:17:00,86.1,55.2,29.80,WSW,250,3.4,6.8,35,0.00,,,0.00,WeatherCatV1.10B1784,2013-04-10 21:17:00,
2013-04-10 17:22:00,86.1,55.2,29.80,SW,219,4.5,5.7,35,0.00,,,0.00,WeatherCatV1.10B1784,2013-04-10 21:22:00,
2013-04-10 17:27:00,85.9,55.8,29.79,SW,217,5.7,7.9,36,0.00,,,0.00,WeatherCatV1.10B1784,2013-04-10 21:27:00,
2013-04-10 17:32:00,85.6,54.8,29.79,SSW,209,2.3,5.7,35,0.00,,,0.00,WeatherCatV1.10B1784,2013-04-10 21:32:00,
2013-04-10 17:37:00,85.5,56.2,29.79,SSW,194,2.3,7.9,37,0.00,,,0.00,WeatherCatV1.10B1784,2013-04-10 21:37:00,
2013-04-10 17:42:00,85.5,56.2,29.78,SW,234,3.4,4.5,37,0.00,,,0.00,WeatherCatV1.10B1784,2013-04-10 21:42:00,
2013-04-10 17:47:00,85.3,55.3,29.78,SW,234,4.5,5.7,36,0.00,,,0.00,WeatherCatV1.10B1784,2013-04-10 21:47:00,
2013-04-10 17:52:00,85.3,55.3,29.78,SW,236,0.0,4.5,36,0.00,,,0.00,WeatherCatV1.10B1784,2013-04-10 21:52:00,
2013-04-10 17:57:00,85.0,55.8,29.78,SSW,192,6.8,9.0,37,0.00,,,0.00,WeatherCatV1.10B1784,2013-04-10 21:57:00,
2013-04-10 18:02:00,84.3,56.6,29.78,South,184,3.4,6.8,39,0.00,,,0.00,WeatherCatV1.10B1784,2013-04-10 22:02:00,
2013-04-10 18:07:00,83.5,57.3,29.78,SSE,163,6.8,9.0,41,0.00,,,0.00,WeatherCatV1.10B1784,2013-04-10 22:07:00,
2013-04-10 18:12:00,83.0,57.5,29.77,South,185,3.4,6.8,42,0.00,,,0.00,WeatherCatV1.10B1784,2013-04-10 22:12:00,
2013-04-10 18:17:00,82.8,58.0,29.77,South,183,1.1,4.5,43,0.00,,,0.00,WeatherCatV1.10B1784,2013-04-10 22:17:00,
2013-04-10 18:22:00,82.7,58.5,29.78,SSE,165,2.3,5.7,44,0.00,,,0.00,WeatherCatV1.10B1784,2013-04-10 22:22:00,
2013-04-10 18:27:00,82.6,58.4,29.77,SSE,157,4.5,4.5,44,0.00,,,0.00,WeatherCatV1.10B1784,2013-04-10 22:27:00,
2013-04-10 18:32:00,82.5,59.0,29.77,South,177,1.1,4.5,45,0.00,,,0.00,WeatherCatV1.10B1784,2013-04-10 22:32:00,
2013-04-10 18:37:00,82.3,58.8,29.77,South,178,1.1,1.1,45,0.00,,,0.00,WeatherCatV1.10B1784,2013-04-10 22:37:00,
2013-04-10 18:42:00,82.0,58.5,29.77,South,188,4.5,4.5,45,0.00,,,0.00,WeatherCatV1.10B1784,2013-04-10 22:42:00,
2013-04-10 18:47:00,81.9,58.4,29.77,South,171,2.3,5.7,45,0.00,,,0.00,WeatherCatV1.10B1784,2013-04-10 22:47:00,
2013-04-10 18:52:00,81.8,58.4,29.77,South,173,2.3,4.5,45,0.00,,,0.00,WeatherCatV1.10B1784,2013-04-10 22:52:00,
2013-04-10 18:57:00,81.5,58.1,29.77,South,173,2.3,4.5,45,0.00,,,0.00,WeatherCatV1.10B1784,2013-04-10 22:57:00,
2013-04-10 19:02:00,81.3,58.5,29.77,South,183,0.0,3.4,46,0.00,,,0.00,WeatherCatV1.10B1784,2013-04-10 23:02:00,
2013-04-10 19:07:00,81.1,57.7,29.77,South,173,0.0,2.3,45,0.00,,,0.00,WeatherCatV1.10B1784,2013-04-10 23:07:00,
2013-04-10 19:12:00,80.8,58.1,29.77,South,175,0.0,1.1,46,0.00,,,0.00,WeatherCatV1.10B1784,2013-04-10 23:12:00,
2013-04-10 19:17:00,80.6,57.3,29.77,South,175,0.0,0.0,45,0.00,,,0.00,WeatherCatV1.10B1784,2013-04-10 23:17:00,
2013-04-10 19:22:00,80.5,57.2,29.77,South,175,0.0,0.0,45,0.00,,,0.00,WeatherCatV1.10B1784,2013-04-10 23:22:00,
2013-04-10 19:27:00,80.5,57.8,29.76,South,174,2.3,2.3,46,0.00,,,0.00,WeatherCatV1.10B1784,2013-04-10 23:27:00,
2013-04-10 19:32:00,80.3,57.6,29.76,SSE,159,2.3,3.4,46,0.00,,,0.00,WeatherCatV1.10B1784,2013-04-10 23:32:00,
2013-04-10 19:37:00,79.9,57.2,29.75,South,175,0.0,2.3,46,0.00,,,0.00,WeatherCatV1.10B1784,2013-04-10 23:37:00,
2013-04-10 19:42:00,79.7,57.1,29.75,South,170,1.1,2.3,46,0.00,,,0.00,WeatherCatV1.10B1784,2013-04-10 23:42:00,
2013-04-10 19:47:00,79.3,56.7,29.75,SSE,161,2.3,3.4,46,0.00,,,0.00,WeatherCatV1.10B1784,2013-04-10 23:47:00,
2013-04-10 19:52:00,79.0,56.4,29.75,South,171,1.1,2.3,46,0.00,,,0.00,WeatherCatV1.10B1784,2013-04-10 23:52:00,
2013-04-10 19:57:00,78.7,56.2,29.75,SSE,165,2.3,2.3,46,0.00,,,0.00,WeatherCatV1.10B1784,2013-04-10 23:57:00,
2013-04-10 20:02:00,78.5,56.0,29.75,SSE,165,0.0,1.1,46,0.00,,,0.00,WeatherCatV1.10B1784,2013-04-11 00:02:00,
2013-04-10 20:07:00,78.3,55.8,29.75,SSE,165,0.0,1.1,46,0.00,,,0.00,WeatherCatV1.10B1784,2013-04-11 00:07:00,
2013-04-10 20:12:00,78.2,55.7,29.75,SSE,165,1.1,1.1,46,0.00,,,0.00,WeatherCatV1.10B1784,2013-04-11 00:12:00,
2013-04-10 20:17:00,78.0,55.5,29.76,SSE,165,0.0,0.0,46,0.00,,,0.00,WeatherCatV1.10B1784,2013-04-11 00:17:00,
2013-04-10 20:22:00,78.0,56.1,29.76,SSE,165,0.0,0.0,47,0.00,,,0.00,WeatherCatV1.10B1784,2013-04-11 00:22:00,
2013-04-10 20:27:00,77.9,56.0,29.76,SSE,165,0.0,0.0,47,0.00,,,0.00,WeatherCatV1.10B1784,2013-04-11 00:27:00,
2013-04-10 20:32:00,77.7,55.8,29.76,SSE,165,0.0,0.0,47,0.00,,,0.00,WeatherCatV1.10B1784,2013-04-11 00:32:00,
2013-04-10 20:37:00,77.5,55.7,29.76,SSE,165,0.0,0.0,47,0.00,,,0.00,WeatherCatV1.10B1784,2013-04-11 00:37:00,
2013-04-10 20:42:00,77.4,56.2,29.77,SSE,165,1.1,1.1,48,0.00,,,0.00,WeatherCatV1.10B1784,2013-04-11 00:42:00,
2013-04-10 20:47:00,77.2,56.0,29.77,SSE,165,2.3,2.3,48,0.00,,,0.00,WeatherCatV1.10B1784,2013-04-11 00:47:00,
2013-04-10 20:52:00,77.2,56.0,29.77,SSE,153,1.1,2.3,48,0.00,,,0.00,WeatherCatV1.10B1784,2013-04-11 00:52:00,
2013-04-10 20:57:00,77.4,55.6,29.77,East,88,1.1,3.4,47,0.00,,,0.00,WeatherCatV1.10B1784,2013-04-11 00:57:00,
2013-04-10 21:02:00,77.5,56.2,29.77,East,88,1.1,3.4,48,0.00,,,0.00,WeatherCatV1.10B1784,2013-04-11 01:02:00,
2013-04-10 21:07:00,77.3,56.1,29.77,East,88,2.3,2.3,48,0.00,,,0.00,WeatherCatV1.10B1784,2013-04-11 01:07:00,
2013-04-10 21:12:00,77.0,55.8,29.77,East,88,0.0,1.1,48,0.00,,,0.00,WeatherCatV1.10B1784,2013-04-11 01:12:00,
2013-04-10 21:17:00,76.7,56.1,29.77,East,88,1.1,2.3,49,0.00,,,0.00,WeatherCatV1.10B1784,2013-04-11 01:17:00,
2013-04-10 21:22:00,76.6,56.0,29.78,East,88,0.0,0.0,49,0.00,,,0.00,WeatherCatV1.10B1784,2013-04-11 01:22:00,
2013-04-10 21:27:00,76.4,56.4,29.78,East,88,0.0,0.0,50,0.00,,,0.00,WeatherCatV1.10B1784,2013-04-11 01:27:00,
2013-04-10 21:32:00,76.4,55.8,29.78,East,88,0.0,0.0,49,0.00,,,0.00,WeatherCatV1.10B1784,2013-04-11 01:32:00,
2013-04-10 21:37:00,76.4,56.4,29.78,East,88,0.0,0.0,50,0.00,,,0.00,WeatherCatV1.10B1784,2013-04-11 01:37:00,
2013-04-10 21:42:00,76.4,55.8,29.78,East,88,0.0,0.0,49,0.00,,,0.00,WeatherCatV1.10B1784,2013-04-11 01:42:00,
2013-04-10 21:47:00,76.5,55.9,29.78,East,88,0.0,0.0,49,0.00,,,0.00,WeatherCatV1.10B1784,2013-04-11 01:47:00,
2013-04-10 21:52:00,76.6,56.0,29.78,East,88,0.0,0.0,49,0.00,,,0.00,WeatherCatV1.10B1784,2013-04-11 01:52:00,
2013-04-10 21:57:00,76.7,56.1,29.78,East,88,0.0,0.0,49,0.00,,,0.00,WeatherCatV1.10B1784,2013-04-11 01:57:00,
2013-04-10 22:02:00,76.8,56.2,29.78,East,88,0.0,1.1,49,0.00,,,0.00,WeatherCatV1.10B1784,2013-04-11 02:02:00,
2013-04-10 22:07:00,76.8,55.6,29.78,ESE,107,0.0,1.1,48,0.00,,,0.00,WeatherCatV1.10B1784,2013-04-11 02:07:00,
2013-04-10 22:12:00,76.7,55.5,29.78,ESE,107,0.0,0.0,48,0.00,,,0.00,WeatherCatV1.10B1784,2013-04-11 02:12:00,
2013-04-10 22:17:00,76.6,56.0,29.78,ESE,115,2.3,2.3,49,0.00,,,0.00,WeatherCatV1.10B1784,2013-04-11 02:17:00,
2013-04-10 22:22:00,76.4,55.8,29.78,ESE,115,0.0,0.0,49,0.00,,,0.00,WeatherCatV1.10B1784,2013-04-11 02:22:00,
2013-04-10 22:27:00,76.1,56.1,29.78,ESE,115,0.0,0.0,50,0.00,,,0.00,WeatherCatV1.10B1784,2013-04-11 02:27:00,
2013-04-10 22:32:00,75.9,55.9,29.78,ESE,115,0.0,1.1,50,0.00,,,0.00,WeatherCatV1.10B1784,2013-04-11 02:32:00,
2013-04-10 22:37:00,75.5,55.5,29.78,SSE,153,0.0,3.4,50,0.00,,,0.00,WeatherCatV1.10B1784,2013-04-11 02:37:00,
2013-04-10 22:42:00,75.3,55.4,29.78,SSE,152,0.0,1.1,50,0.00,,,0.00,WeatherCatV1.10B1784,2013-04-11 02:42:00,
2013-04-10 22:47:00,75.2,55.3,29.78,SSE,152,0.0,1.1,50,0.00,,,0.00,WeatherCatV1.10B1784,2013-04-11 02:47:00,
2013-04-10 22:52:00,74.9,56.1,29.80,North,0,2.3,18.1,52,0.00,,,0.00,WeatherCatV1.10B1784,2013-04-11 02:52:00,
2013-04-10 22:57:00,74.6,56.8,29.79,North,0,0.0,0.0,54,0.00,,,0.00,WeatherCatV1.10B1784,2013-04-11 02:57:00,
2013-04-10 23:02:00,74.3,56.0,29.80,North,5,1.1,2.3,53,0.00,,,0.00,WeatherCatV1.10B1784,2013-04-11 03:02:00,
2013-04-10 23:07:00,74.2,56.0,29.80,NW,319,4.5,5.7,53,0.00,,,0.00,WeatherCatV1.10B1784,2013-04-11 03:07:00,
2013-04-10 23:12:00,74.6,55.8,29.81,NW,318,4.5,10.2,52,0.00,,,0.00,WeatherCatV1.10B1784,2013-04-11 03:12:00,
2013-04-10 23:17:00,74.8,56.0,29.81,NW,325,2.3,3.4,52,0.00,,,0.00,WeatherCatV1.10B1784,2013-04-11 03:17:00,
2013-04-10 23:22:00,74.4,55.6,29.82,NW,325,2.3,4.5,52,0.00,,,0.00,WeatherCatV1.10B1784,2013-04-11 03:22:00,
2013-04-10 23:27:00,74.0,55.2,29.82,NNE,14,1.1,5.7,52,0.00,,,0.00,WeatherCatV1.10B1784,2013-04-11 03:27:00,
2013-04-10 23:32:00,73.7,55.5,29.83,ENE,61,0.0,1.1,53,0.00,,,0.00,WeatherCatV1.10B1784,2013-04-11 03:32:00,
2013-04-10 23:37:00,73.3,55.6,29.83,ENE,72,0.0,2.3,54,0.00,,,0.00,WeatherCatV1.10B1784,2013-04-11 03:37:00,
2013-04-10 23:42:00,73.0,55.9,29.83,ENE,74,2.3,5.7,55,0.00,,,0.00,WeatherCatV1.10B1784,2013-04-11 03:42:00,
2013-04-10 23:47:00,72.7,55.6,29.84,North,351,1.1,3.4,55,0.00,,,0.00,WeatherCatV1.10B1784,2013-04-11 03:47:00,
2013-04-10 23:52:00,72.4,55.3,29.86,NNW,348,3.4,5.7,55,0.00,,,0.00,WeatherCatV1.10B1784,2013-04-11 03:52:00,
2013-04-10 23:57:00,72.4,55.3,29.87,NNE,23,7.9,21.5,55,0.00,,,0.00,WeatherCatV1.10B1784,2013-04-11 03:57:00,